sensor_id;sensor_type;location;lat;lon;timestamp;temperature;humidity
5779;DHT22;2916;49.798;10.022;2023-02-26T00:01:13;-0.20;96.60
5779;DHT22;2916;49.798;10.022;2023-02-26T00:03:40;-0.20;96.00
5779;DHT22;2916;49.798;10.022;2023-02-26T00:06:07;-0.10;97.30
5779;DHT22;2916;49.798;10.022;2023-02-26T00:08:34;-0.10;97.90
5779;DHT22;2916;49.798;10.022;2023-02-26T00:11:05;-0.10;99.20
5779;DHT22;2916;49.798;10.022;2023-02-26T00:13:34;-0.10;99.90
5779;DHT22;2916;49.798;10.022;2023-02-26T00:16:01;0.00;99.90
5779;DHT22;2916;49.798;10.022;2023-02-26T00:18:30;0.00;99.90
5779;DHT22;2916;49.798;10.022;2023-02-26T00:20:58;0.00;99.90
5779;DHT22;2916;49.798;10.022;2023-02-26T00:23:25;0.00;99.90
5779;DHT22;2916;49.798;10.022;2023-02-26T00:25:52;0.00;99.90
5779;DHT22;2916;49.798;10.022;2023-02-26T00:28:19;0.10;99.90
5779;DHT22;2916;49.798;10.022;2023-02-26T00:30:47;0.10;99.90
5779;DHT22;2916;49.798;10.022;2023-02-26T00:33:14;0.10;99.90
5779;DHT22;2916;49.798;10.022;2023-02-26T00:35:43;0.10;99.90
5779;DHT22;2916;49.798;10.022;2023-02-26T00:38:11;0.20;99.00
5779;DHT22;2916;49.798;10.022;2023-02-26T00:40:43;0.20;99.40
5779;DHT22;2916;49.798;10.022;2023-02-26T00:43:14;0.20;99.60
5779;DHT22;2916;49.798;10.022;2023-02-26T00:45:44;0.20;98.80
5779;DHT22;2916;49.798;10.022;2023-02-26T00:48:26;0.20;97.30
5779;DHT22;2916;49.798;10.022;2023-02-26T00:51:03;0.20;95.80
5779;DHT22;2916;49.798;10.022;2023-02-26T00:53:35;0.20;95.90
5779;DHT22;2916;49.798;10.022;2023-02-26T00:56:04;0.20;95.00
5779;DHT22;2916;49.798;10.022;2023-02-26T00:58:31;0.20;95.70
5779;DHT22;2916;49.798;10.022;2023-02-26T01:00:59;0.20;95.70
5779;DHT22;2916;49.798;10.022;2023-02-26T01:03:26;0.20;96.50
5779;DHT22;2916;49.798;10.022;2023-02-26T01:05:53;0.30;95.90
5779;DHT22;2916;49.798;10.022;2023-02-26T01:08:25;0.30;94.80
5779;DHT22;2916;49.798;10.022;2023-02-26T01:10:53;0.30;95.50
5779;DHT22;2916;49.798;10.022;2023-02-26T01:13:21;0.30;95.70
5779;DHT22;2916;49.798;10.022;2023-02-26T01:15:53;0.30;96.00
5779;DHT22;2916;49.798;10.022;2023-02-26T01:18:25;0.30;97.00
5779;DHT22;2916;49.798;10.022;2023-02-26T01:20:58;0.20;91.90
5779;DHT22;2916;49.798;10.022;2023-02-26T01:23:32;0.20;90.50
5779;DHT22;2916;49.798;10.022;2023-02-26T01:26:04;0.20;96.10
5779;DHT22;2916;49.798;10.022;2023-02-26T01:28:33;0.20;99.90
5779;DHT22;2916;49.798;10.022;2023-02-26T01:31:03;0.20;99.90
5779;DHT22;2916;49.798;10.022;2023-02-26T01:33:35;0.20;99.90
5779;DHT22;2916;49.798;10.022;2023-02-26T01:36:08;0.20;99.90
5779;DHT22;2916;49.798;10.022;2023-02-26T01:38:41;0.10;99.90
5779;DHT22;2916;49.798;10.022;2023-02-26T01:41:25;0.10;99.90
5779;DHT22;2916;49.798;10.022;2023-02-26T01:43:59;0.10;99.90
5779;DHT22;2916;49.798;10.022;2023-02-26T01:46:33;0.00;99.90
5779;DHT22;2916;49.798;10.022;2023-02-26T01:49:03;0.10;99.90
5779;DHT22;2916;49.798;10.022;2023-02-26T01:51:47;0.00;99.90
5779;DHT22;2916;49.798;10.022;2023-02-26T01:54:17;0.00;99.90
5779;DHT22;2916;49.798;10.022;2023-02-26T01:56:47;-0.10;99.90
5779;DHT22;2916;49.798;10.022;2023-02-26T01:59:17;-0.10;99.90
5779;DHT22;2916;49.798;10.022;2023-02-26T02:01:49;-0.20;99.90
5779;DHT22;2916;49.798;10.022;2023-02-26T02:04:17;-0.20;99.90
5779;DHT22;2916;49.798;10.022;2023-02-26T02:06:45;-0.20;99.90
5779;DHT22;2916;49.798;10.022;2023-02-26T02:09:12;-0.20;99.90
5779;DHT22;2916;49.798;10.022;2023-02-26T02:11:53;-0.30;99.90
5779;DHT22;2916;49.798;10.022;2023-02-26T02:14:32;-0.30;99.90
5779;DHT22;2916;49.798;10.022;2023-02-26T02:17:09;-0.40;99.90
5779;DHT22;2916;49.798;10.022;2023-02-26T02:19:58;-0.40;99.90
5779;DHT22;2916;49.798;10.022;2023-02-26T02:22:50;-0.40;99.90
5779;DHT22;2916;49.798;10.022;2023-02-26T02:25:37;-0.40;99.90
5779;DHT22;2916;49.798;10.022;2023-02-26T02:28:17;-0.50;99.90
5779;DHT22;2916;49.798;10.022;2023-02-26T02:30:58;-0.50;99.90
5779;DHT22;2916;49.798;10.022;2023-02-26T02:33:30;-0.50;99.90
5779;DHT22;2916;49.798;10.022;2023-02-26T02:36:02;-0.60;99.90
5779;DHT22;2916;49.798;10.022;2023-02-26T02:38:34;-0.70;99.90
5779;DHT22;2916;49.798;10.022;2023-02-26T02:41:08;-0.70;99.90
5779;DHT22;2916;49.798;10.022;2023-02-26T02:43:36;-0.70;99.90
5779;DHT22;2916;49.798;10.022;2023-02-26T02:46:08;-0.70;99.90
5779;DHT22;2916;49.798;10.022;2023-02-26T02:48:39;-0.80;99.90
5779;DHT22;2916;49.798;10.022;2023-02-26T02:51:10;-0.80;99.90
5779;DHT22;2916;49.798;10.022;2023-02-26T02:53:40;-0.80;99.90
5779;DHT22;2916;49.798;10.022;2023-02-26T02:56:12;-0.90;99.90
5779;DHT22;2916;49.798;10.022;2023-02-26T02:58:43;-0.90;99.90
5779;DHT22;2916;49.798;10.022;2023-02-26T03:01:18;-1.00;99.90
5779;DHT22;2916;49.798;10.022;2023-02-26T03:03:51;-1.00;99.90
5779;DHT22;2916;49.798;10.022;2023-02-26T03:06:20;-1.00;99.90
5779;DHT22;2916;49.798;10.022;2023-02-26T03:08:47;-0.90;99.90
5779;DHT22;2916;49.798;10.022;2023-02-26T03:11:15;-1.00;99.90
5779;DHT22;2916;49.798;10.022;2023-02-26T03:13:42;-1.00;99.90
5779;DHT22;2916;49.798;10.022;2023-02-26T03:16:22;-1.00;99.90
5779;DHT22;2916;49.798;10.022;2023-02-26T03:18:58;-1.00;99.90
5779;DHT22;2916;49.798;10.022;2023-02-26T03:21:29;-1.00;99.90
5779;DHT22;2916;49.798;10.022;2023-02-26T03:24:04;-1.00;99.90
5779;DHT22;2916;49.798;10.022;2023-02-26T03:26:37;-1.00;99.90
5779;DHT22;2916;49.798;10.022;2023-02-26T03:29:12;-1.00;99.90
5779;DHT22;2916;49.798;10.022;2023-02-26T03:31:46;-1.00;99.90
5779;DHT22;2916;49.798;10.022;2023-02-26T03:34:17;-1.00;99.90
5779;DHT22;2916;49.798;10.022;2023-02-26T03:36:52;-1.00;99.90
5779;DHT22;2916;49.798;10.022;2023-02-26T03:39:26;-0.90;99.90
5779;DHT22;2916;49.798;10.022;2023-02-26T03:41:57;-0.90;99.90
5779;DHT22;2916;49.798;10.022;2023-02-26T03:44:28;-0.90;99.90
5779;DHT22;2916;49.798;10.022;2023-02-26T03:47:00;-0.80;99.90
5779;DHT22;2916;49.798;10.022;2023-02-26T03:49:31;-0.80;99.90
5779;DHT22;2916;49.798;10.022;2023-02-26T03:52:00;-0.80;99.90
5779;DHT22;2916;49.798;10.022;2023-02-26T03:54:33;-0.80;99.90
5779;DHT22;2916;49.798;10.022;2023-02-26T03:57:02;-0.70;99.90
5779;DHT22;2916;49.798;10.022;2023-02-26T03:59:29;-0.80;99.90
5779;DHT22;2916;49.798;10.022;2023-02-26T04:02:01;-0.80;99.90
5779;DHT22;2916;49.798;10.022;2023-02-26T04:04:33;-0.70;99.90
5779;DHT22;2916;49.798;10.022;2023-02-26T04:07:01;-0.70;99.90
5779;DHT22;2916;49.798;10.022;2023-02-26T04:09:28;-0.70;99.90
5779;DHT22;2916;49.798;10.022;2023-02-26T04:11:56;-0.70;99.90
5779;DHT22;2916;49.798;10.022;2023-02-26T04:14:23;-0.70;99.90
5779;DHT22;2916;49.798;10.022;2023-02-26T04:16:50;-0.70;99.90
5779;DHT22;2916;49.798;10.022;2023-02-26T04:19:19;-0.80;99.90
5779;DHT22;2916;49.798;10.022;2023-02-26T04:21:46;-0.70;99.90
5779;DHT22;2916;49.798;10.022;2023-02-26T04:24:13;-0.80;99.90
5779;DHT22;2916;49.798;10.022;2023-02-26T04:26:40;-0.80;99.90
5779;DHT22;2916;49.798;10.022;2023-02-26T04:29:07;-0.80;99.90
5779;DHT22;2916;49.798;10.022;2023-02-26T04:31:34;-0.80;99.90
5779;DHT22;2916;49.798;10.022;2023-02-26T04:34:01;-0.90;99.90
5779;DHT22;2916;49.798;10.022;2023-02-26T04:36:29;-0.90;99.90
5779;DHT22;2916;49.798;10.022;2023-02-26T04:38:56;-0.90;99.90
5779;DHT22;2916;49.798;10.022;2023-02-26T04:41:23;-0.90;99.90
5779;DHT22;2916;49.798;10.022;2023-02-26T04:43:50;-0.90;99.90
5779;DHT22;2916;49.798;10.022;2023-02-26T04:46:17;-1.00;99.90
5779;DHT22;2916;49.798;10.022;2023-02-26T04:48:44;-1.00;99.90
5779;DHT22;2916;49.798;10.022;2023-02-26T04:51:11;-1.00;99.90
5779;DHT22;2916;49.798;10.022;2023-02-26T04:53:40;-1.00;99.90
5779;DHT22;2916;49.798;10.022;2023-02-26T04:56:07;-1.00;99.90
5779;DHT22;2916;49.798;10.022;2023-02-26T04:58:34;-1.00;99.90
5779;DHT22;2916;49.798;10.022;2023-02-26T05:01:01;-1.10;99.90
5779;DHT22;2916;49.798;10.022;2023-02-26T05:03:27;-1.00;99.90
5779;DHT22;2916;49.798;10.022;2023-02-26T05:05:54;-1.10;99.90
5779;DHT22;2916;49.798;10.022;2023-02-26T05:08:22;-1.10;99.90
5779;DHT22;2916;49.798;10.022;2023-02-26T05:10:51;-1.10;99.90
5779;DHT22;2916;49.798;10.022;2023-02-26T05:13:18;-1.10;99.90
5779;DHT22;2916;49.798;10.022;2023-02-26T05:15:45;-1.10;99.90
5779;DHT22;2916;49.798;10.022;2023-02-26T05:18:12;-1.10;99.90
5779;DHT22;2916;49.798;10.022;2023-02-26T05:20:39;-1.10;99.90
5779;DHT22;2916;49.798;10.022;2023-02-26T05:23:06;-1.10;99.90
5779;DHT22;2916;49.798;10.022;2023-02-26T05:25:33;-1.00;99.90
5779;DHT22;2916;49.798;10.022;2023-02-26T05:28:01;-1.00;99.90
5779;DHT22;2916;49.798;10.022;2023-02-26T05:30:28;-1.00;99.90
5779;DHT22;2916;49.798;10.022;2023-02-26T05:32:55;-1.00;99.90
5779;DHT22;2916;49.798;10.022;2023-02-26T05:35:22;-0.90;99.90
5779;DHT22;2916;49.798;10.022;2023-02-26T05:37:49;-0.90;99.90
5779;DHT22;2916;49.798;10.022;2023-02-26T05:40:16;-0.90;99.90
5779;DHT22;2916;49.798;10.022;2023-02-26T05:42:43;-0.90;99.90
5779;DHT22;2916;49.798;10.022;2023-02-26T05:45:12;-0.90;99.90
5779;DHT22;2916;49.798;10.022;2023-02-26T05:47:39;-0.90;99.90
5779;DHT22;2916;49.798;10.022;2023-02-26T05:50:06;-0.80;99.90
5779;DHT22;2916;49.798;10.022;2023-02-26T05:52:33;-0.80;99.90
5779;DHT22;2916;49.798;10.022;2023-02-26T05:55:00;-0.80;99.90
5779;DHT22;2916;49.798;10.022;2023-02-26T05:57:27;-0.80;99.90
5779;DHT22;2916;49.798;10.022;2023-02-26T05:59:54;-0.70;99.90
5779;DHT22;2916;49.798;10.022;2023-02-26T06:02:23;-0.70;99.90
5779;DHT22;2916;49.798;10.022;2023-02-26T06:04:50;-0.70;99.90
5779;DHT22;2916;49.798;10.022;2023-02-26T06:07:17;-0.70;99.90
5779;DHT22;2916;49.798;10.022;2023-02-26T06:09:44;-0.70;99.90
5779;DHT22;2916;49.798;10.022;2023-02-26T06:12:11;-0.60;99.90
5779;DHT22;2916;49.798;10.022;2023-02-26T06:14:38;-0.70;99.90
5779;DHT22;2916;49.798;10.022;2023-02-26T06:17:05;-0.70;99.90
5779;DHT22;2916;49.798;10.022;2023-02-26T06:19:34;-0.60;99.90
5779;DHT22;2916;49.798;10.022;2023-02-26T06:22:00;-0.60;99.90
5779;DHT22;2916;49.798;10.022;2023-02-26T06:24:27;-0.60;99.90
5779;DHT22;2916;49.798;10.022;2023-02-26T06:26:54;-0.60;99.90
5779;DHT22;2916;49.798;10.022;2023-02-26T06:29:21;-0.60;99.90
5779;DHT22;2916;49.798;10.022;2023-02-26T06:31:48;-0.50;99.90
5779;DHT22;2916;49.798;10.022;2023-02-26T06:34:15;-0.60;99.90
5779;DHT22;2916;49.798;10.022;2023-02-26T06:36:44;-0.60;99.90
5779;DHT22;2916;49.798;10.022;2023-02-26T06:39:11;-0.50;99.90
5779;DHT22;2916;49.798;10.022;2023-02-26T06:41:38;-0.50;99.90
5779;DHT22;2916;49.798;10.022;2023-02-26T06:44:05;-0.50;99.90
5779;DHT22;2916;49.798;10.022;2023-02-26T06:46:32;-0.50;99.90
5779;DHT22;2916;49.798;10.022;2023-02-26T06:48:59;-0.40;99.90
5779;DHT22;2916;49.798;10.022;2023-02-26T06:51:26;-0.50;99.90
5779;DHT22;2916;49.798;10.022;2023-02-26T06:53:55;-0.50;99.90
5779;DHT22;2916;49.798;10.022;2023-02-26T06:56:22;-0.50;99.90
5779;DHT22;2916;49.798;10.022;2023-02-26T06:58:49;-0.40;99.90
5779;DHT22;2916;49.798;10.022;2023-02-26T07:01:16;-0.40;99.90
5779;DHT22;2916;49.798;10.022;2023-02-26T07:03:43;-0.40;99.90
5779;DHT22;2916;49.798;10.022;2023-02-26T07:06:11;-0.40;99.90
5779;DHT22;2916;49.798;10.022;2023-02-26T07:08:38;-0.30;99.90
5779;DHT22;2916;49.798;10.022;2023-02-26T07:11:06;-0.20;99.90
5779;DHT22;2916;49.798;10.022;2023-02-26T07:13:35;-0.20;99.90
5779;DHT22;2916;49.798;10.022;2023-02-26T07:16:02;-0.10;99.90
5779;DHT22;2916;49.798;10.022;2023-02-26T07:18:31;-0.10;99.90
5779;DHT22;2916;49.798;10.022;2023-02-26T07:20:58;-0.10;99.90
5779;DHT22;2916;49.798;10.022;2023-02-26T07:23:25;-0.10;99.90
5779;DHT22;2916;49.798;10.022;2023-02-26T07:25:52;-0.10;99.90
5779;DHT22;2916;49.798;10.022;2023-02-26T07:28:22;-0.20;99.90
5779;DHT22;2916;49.798;10.022;2023-02-26T07:30:49;-0.20;99.90
5779;DHT22;2916;49.798;10.022;2023-02-26T07:33:16;-0.10;99.90
5779;DHT22;2916;49.798;10.022;2023-02-26T07:35:43;-0.10;99.90
5779;DHT22;2916;49.798;10.022;2023-02-26T07:38:10;-0.10;99.90
5779;DHT22;2916;49.798;10.022;2023-02-26T07:40:37;-0.10;99.90
5779;DHT22;2916;49.798;10.022;2023-02-26T07:43:04;-0.10;99.90
5779;DHT22;2916;49.798;10.022;2023-02-26T07:45:33;-0.20;99.90
5779;DHT22;2916;49.798;10.022;2023-02-26T07:47:59;-0.20;99.90
5779;DHT22;2916;49.798;10.022;2023-02-26T07:50:26;-0.10;99.90
5779;DHT22;2916;49.798;10.022;2023-02-26T07:52:54;0.00;99.90
5779;DHT22;2916;49.798;10.022;2023-02-26T07:55:21;0.00;99.90
5779;DHT22;2916;49.798;10.022;2023-02-26T07:57:49;0.00;99.90
5779;DHT22;2916;49.798;10.022;2023-02-26T08:00:17;0.00;99.90
5779;DHT22;2916;49.798;10.022;2023-02-26T08:02:45;0.10;99.90
5779;DHT22;2916;49.798;10.022;2023-02-26T08:05:12;0.10;99.90
5779;DHT22;2916;49.798;10.022;2023-02-26T08:07:39;0.20;99.90
5779;DHT22;2916;49.798;10.022;2023-02-26T08:10:07;0.20;99.90
5779;DHT22;2916;49.798;10.022;2023-02-26T08:12:34;0.30;99.90
5779;DHT22;2916;49.798;10.022;2023-02-26T08:15:02;0.40;99.90
5779;DHT22;2916;49.798;10.022;2023-02-26T08:17:30;0.40;99.90
5779;DHT22;2916;49.798;10.022;2023-02-26T08:19:58;0.50;99.90
5779;DHT22;2916;49.798;10.022;2023-02-26T08:22:25;0.50;99.90
5779;DHT22;2916;49.798;10.022;2023-02-26T08:24:52;0.50;99.90
5779;DHT22;2916;49.798;10.022;2023-02-26T08:27:19;0.60;99.90
5779;DHT22;2916;49.798;10.022;2023-02-26T08:29:46;0.60;99.90
5779;DHT22;2916;49.798;10.022;2023-02-26T08:32:16;0.70;99.90
5779;DHT22;2916;49.798;10.022;2023-02-26T08:34:44;0.70;99.90
5779;DHT22;2916;49.798;10.022;2023-02-26T08:37:12;0.60;99.90
5779;DHT22;2916;49.798;10.022;2023-02-26T08:39:39;0.60;99.90
5779;DHT22;2916;49.798;10.022;2023-02-26T08:42:09;0.60;99.90
5779;DHT22;2916;49.798;10.022;2023-02-26T08:44:36;0.70;99.90
5779;DHT22;2916;49.798;10.022;2023-02-26T08:47:03;0.70;99.90
5779;DHT22;2916;49.798;10.022;2023-02-26T08:49:31;0.80;99.90
5779;DHT22;2916;49.798;10.022;2023-02-26T08:51:58;0.80;99.90
5779;DHT22;2916;49.798;10.022;2023-02-26T08:54:26;0.70;99.90
5779;DHT22;2916;49.798;10.022;2023-02-26T08:56:53;0.80;99.90
5779;DHT22;2916;49.798;10.022;2023-02-26T08:59:22;0.80;99.90
5779;DHT22;2916;49.798;10.022;2023-02-26T09:01:49;1.00;99.90
5779;DHT22;2916;49.798;10.022;2023-02-26T09:04:17;1.20;99.90
5779;DHT22;2916;49.798;10.022;2023-02-26T09:06:44;1.50;99.90
5779;DHT22;2916;49.798;10.022;2023-02-26T09:09:11;1.80;99.90
5779;DHT22;2916;49.798;10.022;2023-02-26T09:11:39;1.90;99.00
5779;DHT22;2916;49.798;10.022;2023-02-26T09:14:07;1.90;92.50
5779;DHT22;2916;49.798;10.022;2023-02-26T09:16:34;1.70;95.10
5779;DHT22;2916;49.798;10.022;2023-02-26T09:19:02;1.50;91.90
5779;DHT22;2916;49.798;10.022;2023-02-26T09:21:29;1.40;94.80
5779;DHT22;2916;49.798;10.022;2023-02-26T09:23:56;1.50;98.20
5779;DHT22;2916;49.798;10.022;2023-02-26T09:26:23;1.50;99.90
5779;DHT22;2916;49.798;10.022;2023-02-26T09:28:52;1.60;99.90
5779;DHT22;2916;49.798;10.022;2023-02-26T09:31:19;1.80;99.40
5779;DHT22;2916;49.798;10.022;2023-02-26T09:33:46;1.80;95.40
5779;DHT22;2916;49.798;10.022;2023-02-26T09:36:13;1.60;91.40
5779;DHT22;2916;49.798;10.022;2023-02-26T09:38:40;1.70;95.60
5779;DHT22;2916;49.798;10.022;2023-02-26T09:41:15;1.90;95.00
5779;DHT22;2916;49.798;10.022;2023-02-26T09:44:13;1.90;92.90
5779;DHT22;2916;49.798;10.022;2023-02-26T09:46:47;1.70;92.90
5779;DHT22;2916;49.798;10.022;2023-02-26T09:49:21;2.00;94.00
5779;DHT22;2916;49.798;10.022;2023-02-26T09:51:54;2.00;93.70
5779;DHT22;2916;49.798;10.022;2023-02-26T09:54:25;2.20;94.10
5779;DHT22;2916;49.798;10.022;2023-02-26T09:56:57;2.20;90.50
5779;DHT22;2916;49.798;10.022;2023-02-26T09:59:28;2.30;89.50
5779;DHT22;2916;49.798;10.022;2023-02-26T10:02:00;2.50;89.00
5779;DHT22;2916;49.798;10.022;2023-02-26T10:04:44;2.40;79.90
5779;DHT22;2916;49.798;10.022;2023-02-26T10:07:22;2.10;77.10
5779;DHT22;2916;49.798;10.022;2023-02-26T10:10:02;2.20;83.40
5779;DHT22;2916;49.798;10.022;2023-02-26T10:12:33;2.20;81.70
5779;DHT22;2916;49.798;10.022;2023-02-26T10:15:08;2.20;77.60
5779;DHT22;2916;49.798;10.022;2023-02-26T10:17:41;2.00;72.80
5779;DHT22;2916;49.798;10.022;2023-02-26T10:20:16;2.20;79.60
5779;DHT22;2916;49.798;10.022;2023-02-26T10:22:55;2.50;82.90
5779;DHT22;2916;49.798;10.022;2023-02-26T10:25:27;2.30;69.90
5779;DHT22;2916;49.798;10.022;2023-02-26T10:27:58;2.30;68.50
5779;DHT22;2916;49.798;10.022;2023-02-26T10:30:32;2.20;64.70
5779;DHT22;2916;49.798;10.022;2023-02-26T10:33:06;2.30;71.00
5779;DHT22;2916;49.798;10.022;2023-02-26T10:35:38;2.40;67.70
5779;DHT22;2916;49.798;10.022;2023-02-26T10:38:12;2.40;51.80
5779;DHT22;2916;49.798;10.022;2023-02-26T10:40:43;2.50;60.40
5779;DHT22;2916;49.798;10.022;2023-02-26T10:43:18;2.40;58.80
5779;DHT22;2916;49.798;10.022;2023-02-26T10:46:02;2.40;50.10
5779;DHT22;2916;49.798;10.022;2023-02-26T10:48:51;2.70;56.00
5779;DHT22;2916;49.798;10.022;2023-02-26T10:51:23;2.60;44.10
5779;DHT22;2916;49.798;10.022;2023-02-26T10:53:54;2.50;45.40
5779;DHT22;2916;49.798;10.022;2023-02-26T10:56:25;2.60;48.70
5779;DHT22;2916;49.798;10.022;2023-02-26T10:58:53;2.70;43.00
5779;DHT22;2916;49.798;10.022;2023-02-26T11:01:23;2.50;34.40
5779;DHT22;2916;49.798;10.022;2023-02-26T11:03:55;2.60;38.50
5779;DHT22;2916;49.798;10.022;2023-02-26T11:06:27;2.70;45.40
5779;DHT22;2916;49.798;10.022;2023-02-26T11:08:56;3.00;38.40
5779;DHT22;2916;49.798;10.022;2023-02-26T11:11:44;3.40;43.90
5779;DHT22;2916;49.798;10.022;2023-02-26T11:14:12;3.50;38.10
5779;DHT22;2916;49.798;10.022;2023-02-26T11:16:45;3.60;31.20
5779;DHT22;2916;49.798;10.022;2023-02-26T11:19:14;4.00;37.40
5779;DHT22;2916;49.798;10.022;2023-02-26T11:21:43;3.80;22.60
5779;DHT22;2916;49.798;10.022;2023-02-26T11:24:14;3.60;18.20
5779;DHT22;2916;49.798;10.022;2023-02-26T11:26:46;3.70;21.60
5779;DHT22;2916;49.798;10.022;2023-02-26T11:29:16;3.20;20.50
5779;DHT22;2916;49.798;10.022;2023-02-26T11:31:49;3.30;18.20
5779;DHT22;2916;49.798;10.022;2023-02-26T11:34:21;3.30;18.50
5779;DHT22;2916;49.798;10.022;2023-02-26T11:36:49;3.30;18.40
5779;DHT22;2916;49.798;10.022;2023-02-26T11:39:19;3.40;20.50
5779;DHT22;2916;49.798;10.022;2023-02-26T11:41:48;3.30;19.40
5779;DHT22;2916;49.798;10.022;2023-02-26T11:44:17;3.60;20.00
5779;DHT22;2916;49.798;10.022;2023-02-26T11:46:49;3.80;22.00
5779;DHT22;2916;49.798;10.022;2023-02-26T11:49:19;3.70;10.10
5779;DHT22;2916;49.798;10.022;2023-02-26T11:52:00;3.80;12.10
5779;DHT22;2916;49.798;10.022;2023-02-26T11:54:28;4.00;14.10
5779;DHT22;2916;49.798;10.022;2023-02-26T11:57:00;3.60;6.90
5779;DHT22;2916;49.798;10.022;2023-02-26T11:59:30;3.90;9.50
5779;DHT22;2916;49.798;10.022;2023-02-26T12:02:13;3.70;1.80
5779;DHT22;2916;49.798;10.022;2023-02-26T12:04:43;3.40;3.20
5779;DHT22;2916;49.798;10.022;2023-02-26T12:07:13;3.70;8.60
5779;DHT22;2916;49.798;10.022;2023-02-26T12:09:41;3.90;14.50
5779;DHT22;2916;49.798;10.022;2023-02-26T12:15:13;3.80;9.10
5779;DHT22;2916;49.798;10.022;2023-02-26T12:18:19;3.80;12.40
5779;DHT22;2916;49.798;10.022;2023-02-26T12:20:56;3.80;7.70
5779;DHT22;2916;49.798;10.022;2023-02-26T12:23:38;3.50;2.70
5779;DHT22;2916;49.798;10.022;2023-02-26T12:26:15;3.30;4.60
5779;DHT22;2916;49.798;10.022;2023-02-26T12:28:51;3.20;10.10
5779;DHT22;2916;49.798;10.022;2023-02-26T12:31:44;3.70;16.10
5779;DHT22;2916;49.798;10.022;2023-02-26T12:34:29;3.30;6.40
5779;DHT22;2916;49.798;10.022;2023-02-26T12:37:11;3.60;6.90
5779;DHT22;2916;49.798;10.022;2023-02-26T12:39:51;3.70;10.60
5779;DHT22;2916;49.798;10.022;2023-02-26T12:42:32;3.60;8.30
5779;DHT22;2916;49.798;10.022;2023-02-26T12:45:15;3.60;14.20
5779;DHT22;2916;49.798;10.022;2023-02-26T12:47:59;3.70;10.10
5779;DHT22;2916;49.798;10.022;2023-02-26T12:50:41;3.80;11.10
5779;DHT22;2916;49.798;10.022;2023-02-26T12:53:33;3.60;7.30
5779;DHT22;2916;49.798;10.022;2023-02-26T12:59:34;3.70;1.20
5779;DHT22;2916;49.798;10.022;2023-02-26T13:05:18;3.70;1.00
5779;DHT22;2916;49.798;10.022;2023-02-26T13:07:58;3.10;1.00
5779;DHT22;2916;49.798;10.022;2023-02-26T13:10:34;3.30;1.00
5779;DHT22;2916;49.798;10.022;2023-02-26T13:13:27;3.40;1.00
5779;DHT22;2916;49.798;10.022;2023-02-26T13:16:08;3.70;1.00
5779;DHT22;2916;49.798;10.022;2023-02-26T13:18:42;3.50;1.00
5779;DHT22;2916;49.798;10.022;2023-02-26T13:21:17;3.50;1.00
5779;DHT22;2916;49.798;10.022;2023-02-26T13:23:49;3.80;1.00
5779;DHT22;2916;49.798;10.022;2023-02-26T13:26:17;4.10;1.20
5779;DHT22;2916;49.798;10.022;2023-02-26T13:28:51;4.10;1.00
5779;DHT22;2916;49.798;10.022;2023-02-26T13:31:21;3.90;1.00
5779;DHT22;2916;49.798;10.022;2023-02-26T13:33:50;3.60;1.00
5779;DHT22;2916;49.798;10.022;2023-02-26T13:36:19;3.90;1.00
5779;DHT22;2916;49.798;10.022;2023-02-26T13:38:56;3.80;1.00
5779;DHT22;2916;49.798;10.022;2023-02-26T13:41:34;3.60;1.00
5779;DHT22;2916;49.798;10.022;2023-02-26T13:44:14;3.60;1.00
5779;DHT22;2916;49.798;10.022;2023-02-26T13:46:55;3.40;1.00
5779;DHT22;2916;49.798;10.022;2023-02-26T13:49:29;3.40;1.00
5779;DHT22;2916;49.798;10.022;2023-02-26T13:51:58;3.50;1.00
5779;DHT22;2916;49.798;10.022;2023-02-26T13:54:34;3.40;1.00
5779;DHT22;2916;49.798;10.022;2023-02-26T13:57:24;3.40;1.00
5779;DHT22;2916;49.798;10.022;2023-02-26T13:59:54;3.50;1.00
5779;DHT22;2916;49.798;10.022;2023-02-26T14:02:40;3.60;1.00
5779;DHT22;2916;49.798;10.022;2023-02-26T14:05:31;3.40;1.00
5779;DHT22;2916;49.798;10.022;2023-02-26T14:08:19;3.40;1.00
5779;DHT22;2916;49.798;10.022;2023-02-26T14:10:57;3.40;1.00
5779;DHT22;2916;49.798;10.022;2023-02-26T14:13:33;3.30;1.00
5779;DHT22;2916;49.798;10.022;2023-02-26T14:16:01;3.40;1.00
5779;DHT22;2916;49.798;10.022;2023-02-26T14:18:40;3.50;1.00
5779;DHT22;2916;49.798;10.022;2023-02-26T14:21:35;3.60;1.00
5779;DHT22;2916;49.798;10.022;2023-02-26T14:24:06;3.50;1.00
5779;DHT22;2916;49.798;10.022;2023-02-26T14:26:44;3.30;1.00
5779;DHT22;2916;49.798;10.022;2023-02-26T14:29:19;3.20;1.00
5779;DHT22;2916;49.798;10.022;2023-02-26T14:31:54;3.20;1.00
5779;DHT22;2916;49.798;10.022;2023-02-26T14:34:29;3.30;1.00
5779;DHT22;2916;49.798;10.022;2023-02-26T14:36:58;3.30;1.00
5779;DHT22;2916;49.798;10.022;2023-02-26T14:39:30;3.50;1.00
5779;DHT22;2916;49.798;10.022;2023-02-26T14:42:09;3.50;1.00
5779;DHT22;2916;49.798;10.022;2023-02-26T14:44:40;3.40;1.00
5779;DHT22;2916;49.798;10.022;2023-02-26T14:47:08;3.60;1.00
5779;DHT22;2916;49.798;10.022;2023-02-26T14:49:38;3.60;1.00
5779;DHT22;2916;49.798;10.022;2023-02-26T14:52:42;3.50;1.00
5779;DHT22;2916;49.798;10.022;2023-02-26T14:55:37;3.30;1.00
5779;DHT22;2916;49.798;10.022;2023-02-26T15:01:13;3.00;1.00
5779;DHT22;2916;49.798;10.022;2023-02-26T15:04:07;3.00;1.00
5779;DHT22;2916;49.798;10.022;2023-02-26T15:06:48;3.10;1.00
5779;DHT22;2916;49.798;10.022;2023-02-26T15:09:21;3.30;1.00
5779;DHT22;2916;49.798;10.022;2023-02-26T15:12:18;3.10;1.00
5779;DHT22;2916;49.798;10.022;2023-02-26T15:15:08;3.10;1.00
5779;DHT22;2916;49.798;10.022;2023-02-26T15:17:47;3.10;1.00
5779;DHT22;2916;49.798;10.022;2023-02-26T15:20:24;3.00;1.00
5779;DHT22;2916;49.798;10.022;2023-02-26T15:23:23;2.90;1.00
5779;DHT22;2916;49.798;10.022;2023-02-26T15:25:53;2.90;1.00
5779;DHT22;2916;49.798;10.022;2023-02-26T15:28:25;3.00;1.00
5779;DHT22;2916;49.798;10.022;2023-02-26T15:30:54;2.90;1.00
5779;DHT22;2916;49.798;10.022;2023-02-26T15:33:24;2.80;1.00
5779;DHT22;2916;49.798;10.022;2023-02-26T15:35:53;2.80;1.00
5779;DHT22;2916;49.798;10.022;2023-02-26T15:38:20;2.70;1.00
5779;DHT22;2916;49.798;10.022;2023-02-26T15:40:49;2.70;1.00
5779;DHT22;2916;49.798;10.022;2023-02-26T15:43:21;2.80;1.00
5779;DHT22;2916;49.798;10.022;2023-02-26T15:45:52;2.90;1.00
5779;DHT22;2916;49.798;10.022;2023-02-26T15:48:29;2.90;1.00
5779;DHT22;2916;49.798;10.022;2023-02-26T15:51:00;2.80;1.00
5779;DHT22;2916;49.798;10.022;2023-02-26T15:53:30;2.90;1.00
5779;DHT22;2916;49.798;10.022;2023-02-26T15:56:02;2.80;1.00
5779;DHT22;2916;49.798;10.022;2023-02-26T15:58:35;2.70;1.00
5779;DHT22;2916;49.798;10.022;2023-02-26T16:01:05;2.60;1.00
5779;DHT22;2916;49.798;10.022;2023-02-26T16:03:34;2.50;1.00
5779;DHT22;2916;49.798;10.022;2023-02-26T16:06:02;2.50;1.00
5779;DHT22;2916;49.798;10.022;2023-02-26T16:08:30;2.50;1.00
5779;DHT22;2916;49.798;10.022;2023-02-26T16:10:58;2.60;1.00
5779;DHT22;2916;49.798;10.022;2023-02-26T16:13:28;2.40;1.00
5779;DHT22;2916;49.798;10.022;2023-02-26T16:15:59;2.40;1.00
5779;DHT22;2916;49.798;10.022;2023-02-26T16:18:30;2.30;1.00
5779;DHT22;2916;49.798;10.022;2023-02-26T16:20:59;2.30;1.00
5779;DHT22;2916;49.798;10.022;2023-02-26T16:23:36;2.20;1.00
5779;DHT22;2916;49.798;10.022;2023-02-26T16:26:06;2.20;1.00
5779;DHT22;2916;49.798;10.022;2023-02-26T16:28:39;2.00;1.00
5779;DHT22;2916;49.798;10.022;2023-02-26T16:31:16;2.10;1.00
5779;DHT22;2916;49.798;10.022;2023-02-26T16:33:53;2.00;1.00
5779;DHT22;2916;49.798;10.022;2023-02-26T16:36:22;1.90;1.00
5779;DHT22;2916;49.798;10.022;2023-02-26T16:38:58;2.00;1.00
5779;DHT22;2916;49.798;10.022;2023-02-26T16:41:28;1.90;1.00